sensor_id;sensor_type;location;lat;lon;timestamp;temperature;humidity
74294;DHT22;64044;59.904;10.738;2023-04-25T00:01:05;7.40;68.00
74294;DHT22;64044;59.904;10.738;2023-04-25T00:03:32;7.40;68.00
74294;DHT22;64044;59.904;10.738;2023-04-25T00:05:58;7.40;67.90
74294;DHT22;64044;59.904;10.738;2023-04-25T00:08:29;7.40;67.90
74294;DHT22;64044;59.904;10.738;2023-04-25T00:10:55;7.40;68.00
74294;DHT22;64044;59.904;10.738;2023-04-25T00:13:20;7.40;68.60
74294;DHT22;64044;59.904;10.738;2023-04-25T00:15:47;7.40;68.00
74294;DHT22;64044;59.904;10.738;2023-04-25T00:18:14;7.40;68.00
74294;DHT22;64044;59.904;10.738;2023-04-25T00:20:40;7.40;68.00
74294;DHT22;64044;59.904;10.738;2023-04-25T00:23:05;7.40;68.00
74294;DHT22;64044;59.904;10.738;2023-04-25T00:25:31;7.40;68.00
74294;DHT22;64044;59.904;10.738;2023-04-25T00:27:57;7.40;68.10
74294;DHT22;64044;59.904;10.738;2023-04-25T00:30:23;7.40;68.10
74294;DHT22;64044;59.904;10.738;2023-04-25T00:32:48;7.40;68.10
74294;DHT22;64044;59.904;10.738;2023-04-25T00:35:15;7.40;68.00
74294;DHT22;64044;59.904;10.738;2023-04-25T00:37:40;7.40;68.00
74294;DHT22;64044;59.904;10.738;2023-04-25T00:40:06;7.40;68.00
74294;DHT22;64044;59.904;10.738;2023-04-25T00:42:34;7.40;68.00
74294;DHT22;64044;59.904;10.738;2023-04-25T00:45:01;7.40;67.80
74294;DHT22;64044;59.904;10.738;2023-04-25T00:47:28;7.40;68.60
74294;DHT22;64044;59.904;10.738;2023-04-25T00:49:54;7.40;67.90
74294;DHT22;64044;59.904;10.738;2023-04-25T00:52:20;7.40;67.80
74294;DHT22;64044;59.904;10.738;2023-04-25T00:54:46;7.40;67.90
74294;DHT22;64044;59.904;10.738;2023-04-25T00:57:12;7.40;67.90
74294;DHT22;64044;59.904;10.738;2023-04-25T00:59:38;7.40;67.90
74294;DHT22;64044;59.904;10.738;2023-04-25T01:02:04;7.30;67.80
74294;DHT22;64044;59.904;10.738;2023-04-25T01:04:30;7.40;67.70
74294;DHT22;64044;59.904;10.738;2023-04-25T01:06:56;7.30;67.70
74294;DHT22;64044;59.904;10.738;2023-04-25T01:09:23;7.30;67.70
74294;DHT22;64044;59.904;10.738;2023-04-25T01:11:49;7.40;67.70
74294;DHT22;64044;59.904;10.738;2023-04-25T01:14:16;7.30;67.80
74294;DHT22;64044;59.904;10.738;2023-04-25T01:16:42;7.40;67.80
74294;DHT22;64044;59.904;10.738;2023-04-25T01:19:10;7.30;67.70
74294;DHT22;64044;59.904;10.738;2023-04-25T01:21:39;7.30;67.60
74294;DHT22;64044;59.904;10.738;2023-04-25T01:24:05;7.30;67.50
74294;DHT22;64044;59.904;10.738;2023-04-25T01:26:32;7.30;67.40
74294;DHT22;64044;59.904;10.738;2023-04-25T01:28:59;7.30;67.30
74294;DHT22;64044;59.904;10.738;2023-04-25T01:31:26;7.30;67.20
74294;DHT22;64044;59.904;10.738;2023-04-25T01:33:52;7.30;67.20
74294;DHT22;64044;59.904;10.738;2023-04-25T01:36:18;7.30;67.10
74294;DHT22;64044;59.904;10.738;2023-04-25T01:38:44;7.20;67.10
74294;DHT22;64044;59.904;10.738;2023-04-25T01:41:13;7.20;67.20
74294;DHT22;64044;59.904;10.738;2023-04-25T01:43:39;7.20;67.20
74294;DHT22;64044;59.904;10.738;2023-04-25T01:46:04;7.20;67.30
74294;DHT22;64044;59.904;10.738;2023-04-25T01:48:30;7.20;67.20
74294;DHT22;64044;59.904;10.738;2023-04-25T01:50:56;7.20;67.20
74294;DHT22;64044;59.904;10.738;2023-04-25T01:53:22;7.20;67.30
74294;DHT22;64044;59.904;10.738;2023-04-25T01:55:48;7.20;67.40
74294;DHT22;64044;59.904;10.738;2023-04-25T01:58:13;7.20;67.40
74294;DHT22;64044;59.904;10.738;2023-04-25T02:00:39;7.10;67.40
74294;DHT22;64044;59.904;10.738;2023-04-25T02:03:06;7.10;67.40
74294;DHT22;64044;59.904;10.738;2023-04-25T02:05:39;7.10;67.40
74294;DHT22;64044;59.904;10.738;2023-04-25T02:08:31;7.10;67.40
74294;DHT22;64044;59.904;10.738;2023-04-25T02:10:57;7.10;67.20
74294;DHT22;64044;59.904;10.738;2023-04-25T02:13:23;7.10;67.20
74294;DHT22;64044;59.904;10.738;2023-04-25T02:15:48;7.10;67.40
74294;DHT22;64044;59.904;10.738;2023-04-25T02:18:14;7.10;67.20
74294;DHT22;64044;59.904;10.738;2023-04-25T02:20:42;7.10;67.20
74294;DHT22;64044;59.904;10.738;2023-04-25T02:23:08;7.10;67.30
74294;DHT22;64044;59.904;10.738;2023-04-25T02:25:33;7.10;67.10
74294;DHT22;64044;59.904;10.738;2023-04-25T02:27:59;7.10;67.10
74294;DHT22;64044;59.904;10.738;2023-04-25T02:30:25;7.10;67.10
74294;DHT22;64044;59.904;10.738;2023-04-25T02:32:50;7.00;67.00
74294;DHT22;64044;59.904;10.738;2023-04-25T02:35:16;7.00;67.00
74294;DHT22;64044;59.904;10.738;2023-04-25T02:37:42;7.00;67.00
74294;DHT22;64044;59.904;10.738;2023-04-25T02:40:08;7.00;67.10
74294;DHT22;64044;59.904;10.738;2023-04-25T02:42:34;7.00;67.20
74294;DHT22;64044;59.904;10.738;2023-04-25T02:45:00;7.00;67.20
74294;DHT22;64044;59.904;10.738;2023-04-25T02:47:26;7.00;67.20
74294;DHT22;64044;59.904;10.738;2023-04-25T02:49:52;7.00;67.10
74294;DHT22;64044;59.904;10.738;2023-04-25T02:52:18;7.00;67.10
74294;DHT22;64044;59.904;10.738;2023-04-25T02:54:43;6.90;66.90
74294;DHT22;64044;59.904;10.738;2023-04-25T02:57:09;6.90;66.80
74294;DHT22;64044;59.904;10.738;2023-04-25T02:59:35;6.90;66.90
74294;DHT22;64044;59.904;10.738;2023-04-25T03:02:01;6.90;67.00
74294;DHT22;64044;59.904;10.738;2023-04-25T03:04:27;6.90;66.90
74294;DHT22;64044;59.904;10.738;2023-04-25T03:06:53;6.80;66.90
74294;DHT22;64044;59.904;10.738;2023-04-25T03:09:19;6.80;66.70
74294;DHT22;64044;59.904;10.738;2023-04-25T03:11:45;6.80;66.80
74294;DHT22;64044;59.904;10.738;2023-04-25T03:14:12;6.70;66.90
74294;DHT22;64044;59.904;10.738;2023-04-25T03:16:38;6.70;66.80
74294;DHT22;64044;59.904;10.738;2023-04-25T03:19:04;6.70;67.50
74294;DHT22;64044;59.904;10.738;2023-04-25T03:21:31;6.70;66.90
74294;DHT22;64044;59.904;10.738;2023-04-25T03:23:58;6.60;66.80
74294;DHT22;64044;59.904;10.738;2023-04-25T03:26:23;6.60;66.90
74294;DHT22;64044;59.904;10.738;2023-04-25T03:28:49;6.60;67.00
74294;DHT22;64044;59.904;10.738;2023-04-25T03:31:15;6.60;67.20
74294;DHT22;64044;59.904;10.738;2023-04-25T03:33:41;6.50;67.00
74294;DHT22;64044;59.904;10.738;2023-04-25T03:36:07;6.50;67.00
74294;DHT22;64044;59.904;10.738;2023-04-25T03:38:33;6.50;67.10
74294;DHT22;64044;59.904;10.738;2023-04-25T03:40:58;6.50;67.30
74294;DHT22;64044;59.904;10.738;2023-04-25T03:43:24;6.40;67.30
74294;DHT22;64044;59.904;10.738;2023-04-25T03:45:50;6.40;67.40
74294;DHT22;64044;59.904;10.738;2023-04-25T03:48:16;6.40;67.50
74294;DHT22;64044;59.904;10.738;2023-04-25T03:50:42;6.40;67.70
74294;DHT22;64044;59.904;10.738;2023-04-25T03:53:07;6.40;67.40
74294;DHT22;64044;59.904;10.738;2023-04-25T03:55:33;6.40;67.50
74294;DHT22;64044;59.904;10.738;2023-04-25T03:57:59;6.30;67.50
74294;DHT22;64044;59.904;10.738;2023-04-25T04:00:25;6.30;67.50
74294;DHT22;64044;59.904;10.738;2023-04-25T04:02:50;6.30;67.50
74294;DHT22;64044;59.904;10.738;2023-04-25T04:05:16;6.20;67.40
74294;DHT22;64044;59.904;10.738;2023-04-25T04:07:42;6.20;67.30
74294;DHT22;64044;59.904;10.738;2023-04-25T04:10:09;6.20;67.30
74294;DHT22;64044;59.904;10.738;2023-04-25T04:12:35;6.10;67.40
74294;DHT22;64044;59.904;10.738;2023-04-25T04:15:02;6.10;67.30
74294;DHT22;64044;59.904;10.738;2023-04-25T04:17:29;6.00;67.30
74294;DHT22;64044;59.904;10.738;2023-04-25T04:19:55;5.90;67.50
74294;DHT22;64044;59.904;10.738;2023-04-25T04:22:20;5.90;67.70
74294;DHT22;64044;59.904;10.738;2023-04-25T04:24:46;5.90;67.70
74294;DHT22;64044;59.904;10.738;2023-04-25T04:27:12;5.80;67.70
74294;DHT22;64044;59.904;10.738;2023-04-25T04:29:40;5.80;67.70
74294;DHT22;64044;59.904;10.738;2023-04-25T04:32:06;5.80;68.00
74294;DHT22;64044;59.904;10.738;2023-04-25T04:34:34;5.70;68.00
74294;DHT22;64044;59.904;10.738;2023-04-25T04:37:00;5.70;68.10
74294;DHT22;64044;59.904;10.738;2023-04-25T04:39:26;5.70;68.90
74294;DHT22;64044;59.904;10.738;2023-04-25T04:41:51;5.70;68.50
74294;DHT22;64044;59.904;10.738;2023-04-25T04:44:17;5.60;68.60
74294;DHT22;64044;59.904;10.738;2023-04-25T04:46:43;5.60;68.60
74294;DHT22;64044;59.904;10.738;2023-04-25T04:49:13;5.60;69.50
74294;DHT22;64044;59.904;10.738;2023-04-25T04:51:43;5.60;69.00
74294;DHT22;64044;59.904;10.738;2023-04-25T04:54:12;5.60;68.90
74294;DHT22;64044;59.904;10.738;2023-04-25T04:56:37;5.60;69.00
74294;DHT22;64044;59.904;10.738;2023-04-25T04:59:03;5.60;68.90
74294;DHT22;64044;59.904;10.738;2023-04-25T05:01:29;5.60;69.10
74294;DHT22;64044;59.904;10.738;2023-04-25T05:03:58;5.60;69.00
74294;DHT22;64044;59.904;10.738;2023-04-25T05:06:28;5.60;69.20
74294;DHT22;64044;59.904;10.738;2023-04-25T05:08:57;5.70;69.30
74294;DHT22;64044;59.904;10.738;2023-04-25T05:11:24;5.70;69.20
74294;DHT22;64044;59.904;10.738;2023-04-25T05:13:51;5.70;69.40
74294;DHT22;64044;59.904;10.738;2023-04-25T05:16:17;5.70;69.30
74294;DHT22;64044;59.904;10.738;2023-04-25T05:18:43;5.70;69.40
74294;DHT22;64044;59.904;10.738;2023-04-25T05:21:09;5.70;69.60
74294;DHT22;64044;59.904;10.738;2023-04-25T05:23:34;5.70;69.40
74294;DHT22;64044;59.904;10.738;2023-04-25T05:26:00;5.80;69.60
74294;DHT22;64044;59.904;10.738;2023-04-25T05:28:26;5.80;69.60
74294;DHT22;64044;59.904;10.738;2023-04-25T05:30:52;5.80;69.60
74294;DHT22;64044;59.904;10.738;2023-04-25T05:33:18;5.80;69.50
74294;DHT22;64044;59.904;10.738;2023-04-25T05:35:44;5.80;69.50
74294;DHT22;64044;59.904;10.738;2023-04-25T05:38:10;5.90;69.60
74294;DHT22;64044;59.904;10.738;2023-04-25T05:40:36;5.90;69.50
74294;DHT22;64044;59.904;10.738;2023-04-25T05:43:02;5.90;69.70
74294;DHT22;64044;59.904;10.738;2023-04-25T05:45:27;5.90;69.50
74294;DHT22;64044;59.904;10.738;2023-04-25T05:47:53;6.00;69.50
74294;DHT22;64044;59.904;10.738;2023-04-25T05:50:19;6.00;69.50
74294;DHT22;64044;59.904;10.738;2023-04-25T05:52:44;6.00;69.40
74294;DHT22;64044;59.904;10.738;2023-04-25T05:55:10;6.10;69.40
74294;DHT22;64044;59.904;10.738;2023-04-25T05:57:36;6.10;69.20
74294;DHT22;64044;59.904;10.738;2023-04-25T06:00:02;6.10;69.20
74294;DHT22;64044;59.904;10.738;2023-04-25T06:02:28;6.10;69.10
74294;DHT22;64044;59.904;10.738;2023-04-25T06:04:54;6.10;69.10
74294;DHT22;64044;59.904;10.738;2023-04-25T06:07:20;6.10;69.10
74294;DHT22;64044;59.904;10.738;2023-04-25T06:09:45;6.10;69.00
74294;DHT22;64044;59.904;10.738;2023-04-25T06:12:11;6.10;69.10
74294;DHT22;64044;59.904;10.738;2023-04-25T06:14:37;6.10;69.10
74294;DHT22;64044;59.904;10.738;2023-04-25T06:17:03;6.10;69.20
74294;DHT22;64044;59.904;10.738;2023-04-25T06:19:32;6.20;69.20
74294;DHT22;64044;59.904;10.738;2023-04-25T06:21:58;6.20;69.20
74294;DHT22;64044;59.904;10.738;2023-04-25T06:24:24;6.20;68.90
74294;DHT22;64044;59.904;10.738;2023-04-25T06:26:50;6.20;68.90
74294;DHT22;64044;59.904;10.738;2023-04-25T06:29:16;6.20;68.90
74294;DHT22;64044;59.904;10.738;2023-04-25T06:31:41;6.20;68.90
74294;DHT22;64044;59.904;10.738;2023-04-25T06:34:07;6.20;68.80
74294;DHT22;64044;59.904;10.738;2023-04-25T06:36:33;6.20;68.80
74294;DHT22;64044;59.904;10.738;2023-04-25T06:38:58;6.20;69.00
74294;DHT22;64044;59.904;10.738;2023-04-25T06:41:24;6.20;69.00
74294;DHT22;64044;59.904;10.738;2023-04-25T06:43:50;6.20;69.00
74294;DHT22;64044;59.904;10.738;2023-04-25T06:46:15;6.10;69.00
74294;DHT22;64044;59.904;10.738;2023-04-25T06:48:41;6.20;68.90
74294;DHT22;64044;59.904;10.738;2023-04-25T06:51:07;6.20;68.90
74294;DHT22;64044;59.904;10.738;2023-04-25T06:53:32;6.20;68.90
74294;DHT22;64044;59.904;10.738;2023-04-25T06:55:58;6.10;68.80
74294;DHT22;64044;59.904;10.738;2023-04-25T06:58:24;6.10;68.80
74294;DHT22;64044;59.904;10.738;2023-04-25T07:00:49;6.10;68.80
74294;DHT22;64044;59.904;10.738;2023-04-25T07:03:15;6.10;68.80
74294;DHT22;64044;59.904;10.738;2023-04-25T07:05:41;6.10;68.90
74294;DHT22;64044;59.904;10.738;2023-04-25T07:08:06;6.10;68.90
74294;DHT22;64044;59.904;10.738;2023-04-25T07:10:32;6.10;69.00
74294;DHT22;64044;59.904;10.738;2023-04-25T07:12:58;6.10;69.00
74294;DHT22;64044;59.904;10.738;2023-04-25T07:15:23;6.10;69.20
74294;DHT22;64044;59.904;10.738;2023-04-25T07:17:49;6.10;69.30
74294;DHT22;64044;59.904;10.738;2023-04-25T07:20:15;6.10;69.20
74294;DHT22;64044;59.904;10.738;2023-04-25T07:22:41;6.10;69.40
74294;DHT22;64044;59.904;10.738;2023-04-25T07:25:07;6.20;69.50
74294;DHT22;64044;59.904;10.738;2023-04-25T07:27:34;6.20;69.50
74294;DHT22;64044;59.904;10.738;2023-04-25T07:30:00;6.20;69.50
74294;DHT22;64044;59.904;10.738;2023-04-25T07:32:26;6.20;69.60
74294;DHT22;64044;59.904;10.738;2023-04-25T07:34:52;6.30;69.50
74294;DHT22;64044;59.904;10.738;2023-04-25T07:37:17;6.30;69.40
74294;DHT22;64044;59.904;10.738;2023-04-25T07:39:44;6.30;69.30
74294;DHT22;64044;59.904;10.738;2023-04-25T07:42:11;6.30;69.20
74294;DHT22;64044;59.904;10.738;2023-04-25T07:44:37;6.30;69.20
74294;DHT22;64044;59.904;10.738;2023-04-25T07:47:06;6.30;69.10
74294;DHT22;64044;59.904;10.738;2023-04-25T07:49:37;6.40;69.10
74294;DHT22;64044;59.904;10.738;2023-04-25T07:52:04;6.30;69.10
74294;DHT22;64044;59.904;10.738;2023-04-25T07:54:57;6.30;69.00
74294;DHT22;64044;59.904;10.738;2023-04-25T07:57:24;6.40;69.20
74294;DHT22;64044;59.904;10.738;2023-04-25T07:59:50;6.40;68.90
74294;DHT22;64044;59.904;10.738;2023-04-25T08:02:15;6.40;68.90
74294;DHT22;64044;59.904;10.738;2023-04-25T08:04:41;6.40;68.90
74294;DHT22;64044;59.904;10.738;2023-04-25T08:07:07;6.40;68.80
74294;DHT22;64044;59.904;10.738;2023-04-25T08:09:33;6.40;68.70
74294;DHT22;64044;59.904;10.738;2023-04-25T08:12:00;6.40;68.70
74294;DHT22;64044;59.904;10.738;2023-04-25T08:14:27;6.40;68.60
74294;DHT22;64044;59.904;10.738;2023-04-25T08:16:54;6.40;68.70
74294;DHT22;64044;59.904;10.738;2023-04-25T08:19:20;6.40;68.70
74294;DHT22;64044;59.904;10.738;2023-04-25T08:21:45;6.40;68.80
74294;DHT22;64044;59.904;10.738;2023-04-25T08:24:11;6.40;68.90
74294;DHT22;64044;59.904;10.738;2023-04-25T08:26:37;6.40;68.90
74294;DHT22;64044;59.904;10.738;2023-04-25T08:29:03;6.40;68.80
74294;DHT22;64044;59.904;10.738;2023-04-25T08:31:29;6.40;68.90
74294;DHT22;64044;59.904;10.738;2023-04-25T08:33:55;6.40;68.80
74294;DHT22;64044;59.904;10.738;2023-04-25T08:36:21;6.40;69.00
74294;DHT22;64044;59.904;10.738;2023-04-25T08:38:47;6.40;69.00
74294;DHT22;64044;59.904;10.738;2023-04-25T08:41:13;6.50;69.10
74294;DHT22;64044;59.904;10.738;2023-04-25T08:43:42;6.40;69.20
74294;DHT22;64044;59.904;10.738;2023-04-25T08:46:08;6.50;69.30
74294;DHT22;64044;59.904;10.738;2023-04-25T08:48:34;6.50;69.20
74294;DHT22;64044;59.904;10.738;2023-04-25T08:51:01;6.60;69.20
74294;DHT22;64044;59.904;10.738;2023-04-25T08:53:30;6.60;69.00
74294;DHT22;64044;59.904;10.738;2023-04-25T08:55:57;6.60;68.90
74294;DHT22;64044;59.904;10.738;2023-04-25T08:58:23;6.60;68.90
74294;DHT22;64044;59.904;10.738;2023-04-25T09:00:50;6.60;68.80
74294;DHT22;64044;59.904;10.738;2023-04-25T09:03:16;6.60;68.60
74294;DHT22;64044;59.904;10.738;2023-04-25T09:05:43;6.60;68.60
74294;DHT22;64044;59.904;10.738;2023-04-25T09:08:08;6.60;68.60
74294;DHT22;64044;59.904;10.738;2023-04-25T09:10:35;6.70;68.70
74294;DHT22;64044;59.904;10.738;2023-04-25T09:13:12;6.70;68.60
74294;DHT22;64044;59.904;10.738;2023-04-25T09:15:54;6.70;68.70
74294;DHT22;64044;59.904;10.738;2023-04-25T09:18:35;6.80;68.70
74294;DHT22;64044;59.904;10.738;2023-04-25T09:21:09;6.80;68.60
74294;DHT22;64044;59.904;10.738;2023-04-25T09:23:43;6.80;68.70
74294;DHT22;64044;59.904;10.738;2023-04-25T09:26:09;6.80;68.80
74294;DHT22;64044;59.904;10.738;2023-04-25T09:28:35;6.90;68.80
74294;DHT22;64044;59.904;10.738;2023-04-25T09:31:01;7.00;68.70
74294;DHT22;64044;59.904;10.738;2023-04-25T09:33:32;7.00;68.50
74294;DHT22;64044;59.904;10.738;2023-04-25T09:36:06;7.00;68.40
74294;DHT22;64044;59.904;10.738;2023-04-25T09:38:48;7.10;68.30
74294;DHT22;64044;59.904;10.738;2023-04-25T09:41:25;7.10;68.20
74294;DHT22;64044;59.904;10.738;2023-04-25T09:43:51;7.10;68.20
74294;DHT22;64044;59.904;10.738;2023-04-25T09:46:16;7.20;68.30
74294;DHT22;64044;59.904;10.738;2023-04-25T09:48:50;7.30;68.70
74294;DHT22;64044;59.904;10.738;2023-04-25T09:51:16;7.40;68.70
74294;DHT22;64044;59.904;10.738;2023-04-25T09:53:46;7.50;68.70
74294;DHT22;64044;59.904;10.738;2023-04-25T09:56:15;7.50;68.70
74294;DHT22;64044;59.904;10.738;2023-04-25T09:58:41;7.60;68.60
74294;DHT22;64044;59.904;10.738;2023-04-25T10:01:09;7.80;68.30
74294;DHT22;64044;59.904;10.738;2023-04-25T10:03:38;7.80;67.90
74294;DHT22;64044;59.904;10.738;2023-04-25T10:06:12;7.90;67.70
74294;DHT22;64044;59.904;10.738;2023-04-25T10:08:38;8.00;67.50
74294;DHT22;64044;59.904;10.738;2023-04-25T10:11:06;8.00;67.30
74294;DHT22;64044;59.904;10.738;2023-04-25T10:13:34;8.10;67.20
74294;DHT22;64044;59.904;10.738;2023-04-25T10:16:04;8.20;67.10
74294;DHT22;64044;59.904;10.738;2023-04-25T10:18:31;8.30;66.90
74294;DHT22;64044;59.904;10.738;2023-04-25T10:21:02;8.30;66.90
74294;DHT22;64044;59.904;10.738;2023-04-25T10:23:30;8.40;66.70
74294;DHT22;64044;59.904;10.738;2023-04-25T10:25:57;8.50;66.80
74294;DHT22;64044;59.904;10.738;2023-04-25T10:28:23;8.60;66.70
74294;DHT22;64044;59.904;10.738;2023-04-25T10:31:03;8.60;66.60
74294;DHT22;64044;59.904;10.738;2023-04-25T10:33:40;8.70;66.10
74294;DHT22;64044;59.904;10.738;2023-04-25T10:36:17;8.80;66.10
74294;DHT22;64044;59.904;10.738;2023-04-25T10:38:44;8.80;65.70
74294;DHT22;64044;59.904;10.738;2023-04-25T10:41:12;8.90;65.70
74294;DHT22;64044;59.904;10.738;2023-04-25T10:43:41;9.00;65.30
74294;DHT22;64044;59.904;10.738;2023-04-25T10:46:27;9.00;65.30
74294;DHT22;64044;59.904;10.738;2023-04-25T10:48:59;9.00;64.70
74294;DHT22;64044;59.904;10.738;2023-04-25T10:51:31;9.10;64.70
74294;DHT22;64044;59.904;10.738;2023-04-25T10:54:05;9.10;64.50
74294;DHT22;64044;59.904;10.738;2023-04-25T10:56:38;9.10;64.40
74294;DHT22;64044;59.904;10.738;2023-04-25T11:01:43;9.10;63.90
74294;DHT22;64044;59.904;10.738;2023-04-25T11:04:28;9.10;63.70
74294;DHT22;64044;59.904;10.738;2023-04-25T11:07:17;9.20;63.00
74294;DHT22;64044;59.904;10.738;2023-04-25T11:09:49;9.20;63.10
74294;DHT22;64044;59.904;10.738;2023-04-25T11:12:14;9.10;63.00
74294;DHT22;64044;59.904;10.738;2023-04-25T11:14:41;9.10;62.70
74294;DHT22;64044;59.904;10.738;2023-04-25T11:17:07;9.00;62.70
74294;DHT22;64044;59.904;10.738;2023-04-25T11:19:33;9.00;62.90
74294;DHT22;64044;59.904;10.738;2023-04-25T11:22:00;9.00;63.60
74294;DHT22;64044;59.904;10.738;2023-04-25T11:24:30;9.00;62.70
74294;DHT22;64044;59.904;10.738;2023-04-25T11:26:58;8.90;62.50
74294;DHT22;64044;59.904;10.738;2023-04-25T11:29:26;8.90;62.50
74294;DHT22;64044;59.904;10.738;2023-04-25T11:31:53;8.90;62.50
74294;DHT22;64044;59.904;10.738;2023-04-25T11:34:21;8.90;62.50
74294;DHT22;64044;59.904;10.738;2023-04-25T11:36:47;8.90;62.50
74294;DHT22;64044;59.904;10.738;2023-04-25T11:39:14;8.90;62.60
74294;DHT22;64044;59.904;10.738;2023-04-25T11:41:42;8.90;62.70
74294;DHT22;64044;59.904;10.738;2023-04-25T11:44:08;8.90;62.60
74294;DHT22;64044;59.904;10.738;2023-04-25T11:46:34;8.90;62.70
74294;DHT22;64044;59.904;10.738;2023-04-25T11:49:00;8.90;62.70
74294;DHT22;64044;59.904;10.738;2023-04-25T11:51:27;9.00;62.60
74294;DHT22;64044;59.904;10.738;2023-04-25T11:53:53;8.90;62.30
74294;DHT22;64044;59.904;10.738;2023-04-25T11:56:20;9.00;62.40
74294;DHT22;64044;59.904;10.738;2023-04-25T11:58:58;9.00;61.70
74294;DHT22;64044;59.904;10.738;2023-04-25T12:01:29;9.00;62.00
74294;DHT22;64044;59.904;10.738;2023-04-25T12:03:57;9.00;61.30
74294;DHT22;64044;59.904;10.738;2023-04-25T12:06:28;9.00;61.40
74294;DHT22;64044;59.904;10.738;2023-04-25T12:09:11;9.00;61.70
74294;DHT22;64044;59.904;10.738;2023-04-25T12:11:45;9.10;61.90
74294;DHT22;64044;59.904;10.738;2023-04-25T12:14:12;9.10;61.90
74294;DHT22;64044;59.904;10.738;2023-04-25T12:16:46;9.10;61.90
74294;DHT22;64044;59.904;10.738;2023-04-25T12:19:17;9.10;62.00
74294;DHT22;64044;59.904;10.738;2023-04-25T12:21:43;9.10;62.10
74294;DHT22;64044;59.904;10.738;2023-04-25T12:24:15;9.10;62.10
74294;DHT22;64044;59.904;10.738;2023-04-25T12:29:34;9.20;61.80
74294;DHT22;64044;59.904;10.738;2023-04-25T12:32:03;9.20;62.00
74294;DHT22;64044;59.904;10.738;2023-04-25T12:34:30;9.20;61.70
74294;DHT22;64044;59.904;10.738;2023-04-25T12:36:59;9.20;61.50
74294;DHT22;64044;59.904;10.738;2023-04-25T12:39:25;9.10;61.30
74294;DHT22;64044;59.904;10.738;2023-04-25T12:41:52;9.10;61.70
74294;DHT22;64044;59.904;10.738;2023-04-25T12:44:20;9.10;61.70
74294;DHT22;64044;59.904;10.738;2023-04-25T12:46:47;9.10;61.70
74294;DHT22;64044;59.904;10.738;2023-04-25T12:49:13;9.10;61.70
74294;DHT22;64044;59.904;10.738;2023-04-25T12:51:40;9.10;61.80
74294;DHT22;64044;59.904;10.738;2023-04-25T12:54:07;9.10;62.00
74294;DHT22;64044;59.904;10.738;2023-04-25T12:56:34;9.10;62.00
74294;DHT22;64044;59.904;10.738;2023-04-25T12:59:03;9.10;62.10
74294;DHT22;64044;59.904;10.738;2023-04-25T13:01:29;9.00;62.10
74294;DHT22;64044;59.904;10.738;2023-04-25T13:03:55;9.10;62.30
74294;DHT22;64044;59.904;10.738;2023-04-25T13:06:23;9.10;62.50
74294;DHT22;64044;59.904;10.738;2023-04-25T13:08:49;9.10;62.60
74294;DHT22;64044;59.904;10.738;2023-04-25T13:11:16;9.00;62.60
74294;DHT22;64044;59.904;10.738;2023-04-25T13:13:43;9.10;62.70
74294;DHT22;64044;59.904;10.738;2023-04-25T13:16:09;9.10;62.50
74294;DHT22;64044;59.904;10.738;2023-04-25T13:18:36;9.00;62.00
74294;DHT22;64044;59.904;10.738;2023-04-25T13:21:02;9.00;62.10
74294;DHT22;64044;59.904;10.738;2023-04-25T13:23:29;9.00;62.40
74294;DHT22;64044;59.904;10.738;2023-04-25T13:25:56;9.00;62.50
74294;DHT22;64044;59.904;10.738;2023-04-25T13:28:26;9.00;62.60
74294;DHT22;64044;59.904;10.738;2023-04-25T13:30:52;9.00;62.60
74294;DHT22;64044;59.904;10.738;2023-04-25T13:33:18;9.00;62.90
74294;DHT22;64044;59.904;10.738;2023-04-25T13:35:47;9.10;63.00
74294;DHT22;64044;59.904;10.738;2023-04-25T13:38:21;9.10;63.00
74294;DHT22;64044;59.904;10.738;2023-04-25T13:40:48;9.10;63.00
74294;DHT22;64044;59.904;10.738;2023-04-25T13:43:14;9.10;63.10
74294;DHT22;64044;59.904;10.738;2023-04-25T13:45:39;9.20;63.30
74294;DHT22;64044;59.904;10.738;2023-04-25T13:48:05;9.20;63.40
74294;DHT22;64044;59.904;10.738;2023-04-25T13:50:31;9.20;63.40
74294;DHT22;64044;59.904;10.738;2023-04-25T13:52:57;9.30;63.50
74294;DHT22;64044;59.904;10.738;2023-04-25T13:55:23;9.30;63.40
74294;DHT22;64044;59.904;10.738;2023-04-25T13:57:48;9.30;63.10
74294;DHT22;64044;59.904;10.738;2023-04-25T14:00:15;9.40;63.00
74294;DHT22;64044;59.904;10.738;2023-04-25T14:02:40;9.40;62.80
74294;DHT22;64044;59.904;10.738;2023-04-25T14:05:06;9.40;62.70
74294;DHT22;64044;59.904;10.738;2023-04-25T14:07:36;9.40;62.60
74294;DHT22;64044;59.904;10.738;2023-04-25T14:10:03;9.40;62.50
74294;DHT22;64044;59.904;10.738;2023-04-25T14:12:30;9.40;62.50
74294;DHT22;64044;59.904;10.738;2023-04-25T14:14:56;9.40;62.30
74294;DHT22;64044;59.904;10.738;2023-04-25T14:17:21;9.50;62.20
74294;DHT22;64044;59.904;10.738;2023-04-25T14:19:49;9.50;62.00
74294;DHT22;64044;59.904;10.738;2023-04-25T14:22:15;9.50;62.00
74294;DHT22;64044;59.904;10.738;2023-04-25T14:24:41;9.50;62.00
74294;DHT22;64044;59.904;10.738;2023-04-25T14:27:07;9.50;62.10
74294;DHT22;64044;59.904;10.738;2023-04-25T14:29:32;9.50;62.20
74294;DHT22;64044;59.904;10.738;2023-04-25T14:31:58;9.50;62.10
74294;DHT22;64044;59.904;10.738;2023-04-25T14:34:25;9.50;62.20
74294;DHT22;64044;59.904;10.738;2023-04-25T14:36:51;9.50;62.00
74294;DHT22;64044;59.904;10.738;2023-04-25T14:39:17;9.60;62.00
74294;DHT22;64044;59.904;10.738;2023-04-25T14:41:43;9.60;61.70
74294;DHT22;64044;59.904;10.738;2023-04-25T14:44:09;9.50;61.40
74294;DHT22;64044;59.904;10.738;2023-04-25T14:46:36;9.60;60.80
74294;DHT22;64044;59.904;10.738;2023-04-25T14:49:02;9.50;60.80
74294;DHT22;64044;59.904;10.738;2023-04-25T14:51:28;9.60;60.70
74294;DHT22;64044;59.904;10.738;2023-04-25T14:53:54;9.50;60.30
74294;DHT22;64044;59.904;10.738;2023-04-25T14:56:19;9.50;59.90
74294;DHT22;64044;59.904;10.738;2023-04-25T14:58:45;9.50;59.90
74294;DHT22;64044;59.904;10.738;2023-04-25T15:01:12;9.50;60.30
74294;DHT22;64044;59.904;10.738;2023-04-25T15:03:39;9.40;59.70
74294;DHT22;64044;59.904;10.738;2023-04-25T15:06:05;9.40;60.00
74294;DHT22;64044;59.904;10.738;2023-04-25T15:08:34;9.40;60.00
74294;DHT22;64044;59.904;10.738;2023-04-25T15:11:01;9.40;59.60
74294;DHT22;64044;59.904;10.738;2023-04-25T15:13:27;9.30;59.70
74294;DHT22;64044;59.904;10.738;2023-04-25T15:15:53;9.30;59.70
74294;DHT22;64044;59.904;10.738;2023-04-25T15:18:22;9.30;60.00
74294;DHT22;64044;59.904;10.738;2023-04-25T15:20:50;9.30;60.00
74294;DHT22;64044;59.904;10.738;2023-04-25T15:23:17;9.20;60.10
74294;DHT22;64044;59.904;10.738;2023-04-25T15:25:42;9.20;60.20
74294;DHT22;64044;59.904;10.738;2023-04-25T15:28:08;9.20;60.20
74294;DHT22;64044;59.904;10.738;2023-04-25T15:30:34;9.20;60.40
74294;DHT22;64044;59.904;10.738;2023-04-25T15:32:59;9.20;60.50
74294;DHT22;64044;59.904;10.738;2023-04-25T15:35:25;9.20;60.50